Tiempo atmosférico en la estación meteorológica de Castellote, Teruel (755 m.)



Fecha
DESCASC
Temp. máxima en grados centígrados (hora)
DESCASC
Temp. mínima en grados centígrados (hora)
DESCASC
Temp. media en grados centígrados
DESCASC
Racha de viento máxima en m/sg (hora)
DESCASC
Velocidad máxima media en intervalos de 10 minutos(hora)
DESCASC
Precipitaciones diarias en mm
DESCASC
Precipitaciones de 00:00 a 06:00 en mm
DESCASC
Precipitaciones de 06:00 a 12:00 en mm
DESCASC
Precipitaciones de 12:00 a 18:00 en mm
DESCASC
Precipitaciones de 18:00 a 24:00 en mm
DESCASC
28-02-2021 10.9 (11:30) 5.4 (06:40) 8.1 9.72 (13:20) 5.28 (12:20) 0 0 0 0 0
27-02-2021 15.3 (15:50) 4.5 (05:20) 9.9 8.33 (14:40) 4.44 (14:20) 0 0 0 0 0
26-02-2021 14.6 (15:00) 4.3 (07:20) 9.5 6.39 (16:30) 3.33 (15:40) 0 0 0 0 0
25-02-2021 15.6 (12:40) 4.6 (00:00) 10.1 7.22 (17:50) 3.61 (17:40) 0 0 0 0 0
24-02-2021 16.8 (13:40) 5.2 (00:00) 11 8.33 (13:50) 6.39 (14:00) 0 0 0 0 0
23-02-2021 15.1 (15:10) 3.1 (00:00) 9.1 6.94 (16:20) 3.61 (17:40) 0 0 0 0 0
22-02-2021 10.3 (00:40) 5.4 (00:00) 7.9 13.33 (03:30) 6.94 (03:30) 5 4.8 0.2 0 0
21-02-2021 10.4 (14:30) 6.6 (00:00) 8.5 12.5 (11:10) 6.39 (13:40) 0 0 0 0 0
20-02-2021 20.1 (12:50) 7.2 (00:00) 13.7 11.67 (16:50) 5.83 (21:10) 0 0 0 0 0
19-02-2021 21.2 (15:50) 5.4 (00:00) 13.3 9.44 (15:00) 6.11 (15:00) 0 0 0 0 0
18-02-2021 19.6 (14:40) 5.1 (00:00) 12.4 7.5 (15:00) 3.61 (15:00) 0 0 0 0 0
17-02-2021 18.5 (14:50) 7.3 (00:00) 12.9 6.94 (15:20) 2.78 (13:20) 0 0 0 0 0
16-02-2021 19.1 (16:20) 2.6 (00:00) 10.9 6.11 (21:30) 3.33 (22:00) 0 0 0 0 0
15-02-2021 14.1 (13:10) 5.2 (00:00) 9.7 7.5 (14:30) 4.44 (13:40) 0 0 0 0 0
14-02-2021 13.9 (13:00) 4.7 (00:00) 9.3 9.72 (14:50) 6.11 (13:10) 0 0 0 0 0
13-02-2021 13.3 (13:30) 6.5 (00:00) 9.9 18.33 (00:30) 8.89 (03:40) 0 0 0 0 0
12-02-2021 14.4 (14:10) 8.3 (00:00) 11.3 18.89 (16:00) 10.28 (22:10) 1.8 0 0 1.6 0.2
11-02-2021 18.3 (15:00) 5.3 (00:00) 11.8 12.78 (20:40) 8.89 (20:40) 0 0 0 0 0
10-02-2021 12.4 (16:20) 4.9 (00:00) 8.6 16.39 (13:00) 8.61 (02:50) 2 0.2 1.8 0 0
09-02-2021 14.1 (16:50) 7.4 (00:00) 10.8 19.72 (17:40) 11.94 (17:40) 0 0 0 0 0
08-02-2021 13.1 (15:50) 7.4 (00:00) 10.3 15.56 (15:20) 10.28 (13:10) 0.2 0 0 0.2 0
07-02-2021 11 (15:40) 3.1 (00:00) 7 15 (02:50) 9.17 (03:00) 0 0 0 0 0
06-02-2021 16.2 (13:20) 5.2 (00:00) 10.7 11.39 (22:30) 5.28 (23:59) 3.2 0 0 2 1.2
05-02-2021 15.4 (11:40) 8 (00:00) 11.7 8.89 (11:40) 5.28 (15:00) 0 0 0 0 0
04-02-2021 18.8 (16:00) 8.2 (00:00) 13.5 8.89 (15:50) 5.28 (15:10) 0 0 0 0 0
03-02-2021 15.2 (15:00) 6.2 (00:00) 10.7 5 (13:50) 2.22 (06:50) 0 0 0 0 0
02-02-2021 19.7 (15:30) 8.9 (23:59) 14.3 12.78 (07:00) 5.83 (06:50) 0 0 0 0 0
01-02-2021 16.8 (16:10) 9.6 (00:00) 13.2 18.33 (12:40) 9.44 (01:30) 0 0 0 0 0
31-01-2021 14.4 (16:20) 7.1 (00:00) 10.7 15.83 (22:00) 10 (21:40) 0 0 0 0 0
30-01-2021 14.2 (05:20) 7.4 (00:00) 10.8 18.33 (15:40) 10.56 (10:20) 0.4 0 0 0.4 0

Gráficas

Temp. máximas Temp. mínimas Temp. medias Precipitaciones Rachas de viento máximas Velocidades máximas media en intervalos de 10 minutos

Datos horarios

Fecha y hora oficial Temperatura (ºC) Velocidad del viento (km/h) Dirección del viento Racha (km/h) Dirección de racha Precipitación (mm) Presión (hPa) Tendencia (hPa) Humedad (%)
2021-02-28 23:00:00 6.7 11 Sudeste 23 Sudeste 0 -- -- 76
2021-02-28 22:00:00 6.8 11 Sudeste 23 Sudeste 0 -- -- 76
2021-02-28 21:00:00 7.1 8 Sudeste 23 Sudeste 0 -- -- 75
2021-02-28 20:00:00 7.1 12 Este 18 Este 0 -- -- 78
2021-02-28 19:00:00 7.7 9 Sudeste 22 Sudeste 0 -- -- 75
2021-02-28 18:00:00 7.8 11 Sudeste 27 Sudeste 0 -- -- 78
2021-02-28 17:00:00 8.1 12 Sudeste 27 Este 0 -- -- 77
2021-02-28 16:00:00 8 15 Sudeste 28 Sudeste 0 -- -- 77
2021-02-28 15:00:00 8.1 15 Este 31 Sudeste 0 -- -- 75
2021-02-28 14:00:00 9 12 Sur 35 Sudeste 0 -- -- 71
2021-02-28 13:00:00 9.5 9 Sudeste 34 Sudeste 0 -- -- 70
2021-02-28 12:00:00 10.5 16 Este 33 Sudeste 0 -- -- 63
2021-02-28 11:00:00 10.2 12 Sudeste 29 Sudeste 0 -- -- 63
2021-02-28 10:00:00 9.3 12 Sur 23 Sur 0 -- -- 67
2021-02-28 09:00:00 8.7 5 Sur 10 Sur 0 -- -- 71
2021-02-28 08:00:00 5.7 3 Sur 6 Oeste 0 -- -- 77
2021-02-28 07:00:00 5.7 4 Este 8 Norte 0 -- -- 77
2021-02-28 06:00:00 5.6 3 Sudoeste 13 Nordeste 0 -- -- 76
2021-02-28 05:00:00 5.7 5 Norte 13 Nordeste 0 -- -- 75
2021-02-28 04:00:00 6.4 2 Sudeste 5 Oeste 0 -- -- 79
2021-02-28 03:00:00 6.8 0 Calma 11 Norte 0 -- -- 78
2021-02-28 02:00:00 7.2 3 Norte 16 Norte 0 -- -- 80
2021-02-28 01:00:00 8.2 6 Norte 14 Este 0 -- -- 78
2021-02-28 00:00:00 9.3 0 Calma 2 Este 0 -- -- 75
2021-02-27 23:00:00 9.2 0 Calma -- -- 0 -- -- 76
2021-02-27 22:00:00 9.5 0 Calma 2 Nordeste 0 -- -- 75
2021-02-27 21:00:00 9.6 0 Calma 5 Oeste 0 -- -- 70
2021-02-27 20:00:00 10.2 4 Sudeste 17 Este 0 -- -- 70
2021-02-27 19:00:00 11.2 5 Nordeste 19 Este 0 -- -- 66
2021-02-27 18:00:00 13.1 8 Este 17 Este 0 -- -- 61
2021-02-27 17:00:00 14 9 Este 25 Este 0 -- -- 58
2021-02-27 16:00:00 14.7 11 Este 20 Este 0 -- -- 55
2021-02-27 15:00:00 14.5 8 Nordeste 30 Este 0 -- -- 55
2021-02-27 14:00:00 13.7 8 Sudeste 19 Este 0 -- -- 61
2021-02-27 13:00:00 12 8 Este 14 Nordeste 0 -- -- 65
2021-02-27 12:00:00 10.2 4 Este 9 Sudeste 0 -- -- 76
2021-02-27 11:00:00 7.1 2 Este 5 Nordeste 0 -- -- 87
2021-02-27 10:00:00 6.3 2 Este 3 Este 0 -- -- 85
2021-02-27 09:00:00 5.9 0 Calma 5 Este 0 -- -- 87
2021-02-27 08:00:00 4.9 3 Este 7 Este 0 -- -- 88
2021-02-27 07:00:00 4.7 5 Este 7 Este 0 -- -- 90
2021-02-27 06:00:00 4.5 2 Sudeste 10 Este 0 -- -- 92
2021-02-27 05:00:00 4.8 3 Este 5 Este 0 -- -- 91
2021-02-27 04:00:00 5.2 0 Calma 6 Este 0 -- -- 93
2021-02-27 03:00:00 5.7 3 Sudeste 5 Este 0 -- -- 93
2021-02-27 02:00:00 6.3 3 Este 7 Este 0 -- -- 94
2021-02-27 01:00:00 6.7 3 Este 5 Este 0 -- -- 92
2021-02-27 00:00:00 7.4 3 Este 4 Este 0 -- -- 91
2021-02-26 23:00:00 8.2 0 Calma 0 Calma 0 -- -- 90
2021-02-26 22:00:00 8.5 0 Calma 4 Este 0 -- -- 89
2021-02-26 21:00:00 9 3 Este 4 Este 0 -- -- 88
2021-02-26 20:00:00 9.1 2 Sudoeste 7 Noroeste 0 -- -- 87
2021-02-26 19:00:00 10.1 3 Nordeste 16 Norte 0 -- -- 82
2021-02-26 18:00:00 11.4 9 Nordeste 18 Nordeste 0 -- -- 76
2021-02-26 17:00:00 12.4 7 Sudeste 23 Este 0 -- -- 68
2021-02-26 16:00:00 12.7 10 Nordeste 20 Nordeste 0 -- -- 67
2021-02-26 15:00:00 14.6 8 Norte 22 Norte 0 -- -- 62
2021-02-26 14:00:00 14.4 7 Este 18 Nordeste 0 -- -- 63
2021-02-26 13:00:00 13.1 8 Nordeste 21 Nordeste 0 -- -- 66
2021-02-26 12:00:00 11.9 5 Este 12 Este 0 -- -- 67
2021-02-26 11:00:00 9.8 2 Sur 8 Sur 0 -- -- 72
2021-02-26 10:00:00 7.1 4 Sur 8 Sur 0 -- -- 78
2021-02-26 09:00:00 5 0 Calma 9 Nordeste 0 -- -- 87
2021-02-26 08:00:00 4.5 3 Este 7 Este 0 -- -- 90
2021-02-26 07:00:00 4.5 3 Sudeste 5 Este 0 -- -- 92
2021-02-26 06:00:00 5 0 Calma 4 Este 0 -- -- 92
2021-02-26 05:00:00 5.7 0 Calma 4 Sudeste 0 -- -- 90
2021-02-26 04:00:00 5.9 2 Este 3 Este 0 -- -- 92
2021-02-26 03:00:00 6.5 0 Calma 2 Oeste 0 -- -- 91
2021-02-26 02:00:00 7.1 0 Calma 4 Este 0 -- -- 88
2021-02-26 01:00:00 7.7 0 Calma 6 Sudeste 0 -- -- 89
2021-02-26 00:00:00 8.5 2 Sur 5 Sur 0 -- -- 87
2021-02-25 23:00:00 8.7 2 Sur 4 Sur 0 -- -- 86
2021-02-25 22:00:00 9.2 0 Calma 4 Este 0 -- -- 84
2021-02-25 21:00:00 9.6 0 Calma 4 Sudeste 0 -- -- 82
2021-02-25 20:00:00 10.3 3 Sur 14 Noroeste 0 -- -- 78
2021-02-25 19:00:00 11 8 Noroeste 24 Noroeste 0 -- -- 76
2021-02-25 18:00:00 12.5 9 Norte 26 Nordeste 0 -- -- 70
2021-02-25 17:00:00 14.2 12 Nordeste 21 Norte 0 -- -- 61
2021-02-25 16:00:00 14.2 13 Nordeste 22 Nordeste 0 -- -- 62
2021-02-25 15:00:00 15.3 8 Norte 21 Norte 0 -- -- 59
2021-02-25 14:00:00 15.1 6 Norte 17 Nordeste 0 -- -- 55
2021-02-25 13:00:00 15.5 4 Este 12 Este 0 -- -- 50
2021-02-25 12:00:00 14.2 4 Sur 10 Sur 0 -- -- 51
2021-02-25 11:00:00 11 7 Sur 11 Sur 0 -- -- 53
2021-02-25 10:00:00 7.6 6 Este 11 Este 0 -- -- 65
2021-02-25 09:00:00 4.6 5 Sudeste 9 Sudeste 0 -- -- 75
2021-02-25 08:00:00 5.1 3 Sur 9 Sur 0 -- -- 72
2021-02-25 07:00:00 5.1 5 Sudoeste 8 Sudoeste 0 -- -- 70
2021-02-25 06:00:00 5.4 3 Sur 11 Sudoeste 0 -- -- 70
2021-02-25 05:00:00 5.8 6 Sudoeste 13 Sudoeste 0 -- -- 68
2021-02-25 04:00:00 5.8 7 Sudoeste 13 Sudoeste 0 -- -- 69
2021-02-25 03:00:00 5.9 4 Sur 12 Sur 0 -- -- 81
2021-02-25 02:00:00 6.1 4 Sur 10 Sudeste 0 -- -- 83
2021-02-25 01:00:00 6.7 5 Sudeste 13 Sudeste 0 -- -- 83
2021-02-25 00:00:00 7.4 5 Sur 10 Sur 0 -- -- 82
2021-02-24 23:00:00 8.1 5 Sur 17 Sur 0 -- -- 83
2021-02-24 22:00:00 8.5 6 Sur 15 Sur 0 -- -- 81
2021-02-24 21:00:00 9.3 5 Sudeste 13 Sudeste 0 -- -- 79
2021-02-24 20:00:00 10.3 9 Este 13 Sudeste 0 -- -- 75
2021-02-24 19:00:00 11.7 6 Sudeste 21 Sudeste 0 -- -- 69
2021-02-24 18:00:00 13.7 9 Sudeste 25 Sudeste 0 -- -- 64
2021-02-24 17:00:00 15.9 13 Este 30 Este 0 -- -- 55
2021-02-24 16:00:00 16.5 12 Este 24 Sudeste 0 -- -- 50
2021-02-24 15:00:00 16.3 11 Este 29 Este 0 -- -- 53
2021-02-24 14:00:00 16.1 23 Este 30 Este 0 -- -- 55
2021-02-24 13:00:00 16.2 14 Este 23 Este 0 -- -- 55
2021-02-24 12:00:00 15.1 8 Sudeste 19 Sudeste 0 -- -- 60
2021-02-24 11:00:00 12.6 5 Sur 12 Sudoeste 0 -- -- 66
2021-02-24 10:00:00 9.7 6 Sur 11 Sur 0 -- -- 73
2021-02-24 09:00:00 6.7 6 Este 9 Este 0 -- -- 80
2021-02-24 08:00:00 5.6 2 Sudeste 7 Sudoeste 0 -- -- 82
2021-02-24 07:00:00 5.2 2 Sudeste 5 Sudeste 0 -- -- 85
2021-02-24 06:00:00 7 4 Sudoeste 6 Sur 0 -- -- 79
2021-02-24 05:00:00 7.8 5 Sur 20 Sudeste 0 -- -- 81
2021-02-24 04:00:00 8 12 Sur 22 Sudoeste 0 -- -- 81
2021-02-24 03:00:00 8 15 Sur 23 Sur 0 -- -- 81
2021-02-24 02:00:00 8 10 Sur 25 Sudeste 0 -- -- 80
2021-02-24 01:00:00 7.9 11 Sudeste 23 Este 0 -- -- 83
2021-02-24 00:00:00 8.3 6 Sudeste 18 Sur 0 -- -- 78
2021-02-23 23:00:00 8.9 10 Sudoeste 17 Sudoeste 0 -- -- 78
2021-02-23 22:00:00 8.8 5 Sur 9 Sudeste 0 -- -- 81
2021-02-23 21:00:00 9.5 5 Este 12 Este 0 -- -- 77
2021-02-23 20:00:00 10.3 4 Nordeste 16 Norte 0 -- -- 75
2021-02-23 19:00:00 11.1 7 Norte 21 Norte 0 -- -- 74
2021-02-23 18:00:00 12.9 12 Nordeste 22 Nordeste 0 -- -- 67
2021-02-23 17:00:00 13.8 10 Nordeste 25 Nordeste 0 -- -- 63
2021-02-23 16:00:00 13.4 10 Nordeste 25 Nordeste 0 -- -- 64
2021-02-23 15:00:00 15 8 Nordeste 21 Este 0 -- -- 57
2021-02-23 14:00:00 14 11 Este 21 Este 0 -- -- 53
2021-02-23 13:00:00 12.9 9 Este 18 Este 0 -- -- 59
2021-02-23 12:00:00 11.7 6 Sur 14 Sur 0 -- -- 63
2021-02-23 11:00:00 9.2 4 Sudeste 9 Sur 0 -- -- 69
2021-02-23 10:00:00 6.8 2 Sur 6 Este 0 -- -- 80
2021-02-23 09:00:00 4.6 0 Calma 4 Este 0 -- -- 88
2021-02-23 08:00:00 3.1 2 Oeste 6 Sudoeste 0 -- -- 93
2021-02-23 07:00:00 4 0 Calma 6 Noroeste 0 -- -- 90
2021-02-23 06:00:00 4.5 3 Oeste 3 Oeste 0 -- -- 89
2021-02-23 05:00:00 5 0 Calma 7 Oeste 0 -- -- 87
2021-02-23 04:00:00 5.1 0 Calma 4 Oeste 0 -- -- 88
2021-02-23 03:00:00 5.2 3 Sudoeste 5 Sudoeste 0 -- -- 88
2021-02-23 02:00:00 5.5 0 Calma 5 Norte 0 -- -- 86
2021-02-23 01:00:00 5.5 0 Calma 5 Este 0 -- -- 85
2021-02-23 00:00:00 5.7 0 Calma 12 Oeste 0 -- -- 82
2021-02-22 23:00:00 5.6 0 Calma 13 Oeste 0 -- -- 83
2021-02-22 22:00:00 5.6 4 Oeste 12 Noroeste 0 -- -- 83
2021-02-22 21:00:00 5.4 8 Noroeste 19 Norte 0 -- -- 83
2021-02-22 20:00:00 5.8 6 Noroeste 15 Oeste 0 -- -- 84
2021-02-22 19:00:00 6 9 Noroeste 27 Oeste 0 -- -- 84
2021-02-22 18:00:00 6.2 2 Sudeste 11 Este 0 -- -- 86
2021-02-22 17:00:00 6.4 6 Este 15 Este 0 -- -- 85
2021-02-22 16:00:00 6.8 7 Este 13 Este 0 -- -- 86
2021-02-22 15:00:00 6.3 5 Este 18 Nordeste 0 -- -- 88
2021-02-22 14:00:00 6.1 5 Este 16 Este 0 -- -- 87
2021-02-22 13:00:00 6.9 8 Oeste 18 Noroeste 0 -- -- 78
2021-02-22 12:00:00 7.2 4 Noroeste 24 Norte 0 -- -- 73
2021-02-22 11:00:00 7.2 8 Noroeste 22 Oeste 0 -- -- 74
2021-02-22 10:00:00 7.2 13 Oeste 37 Oeste 0.2 -- -- 73
2021-02-22 09:00:00 7.2 13 Oeste 28 Sudoeste 0 -- -- 76
2021-02-22 08:00:00 7 0 Calma 6 Este 0 -- -- 80
2021-02-22 07:00:00 7.3 3 Sur 15 Este 0 -- -- 80
2021-02-22 06:00:00 6.8 4 Oeste 13 Sudeste 0 -- -- 85
2021-02-22 05:00:00 6.5 6 Sudoeste 14 Sudoeste 0 -- -- 89
2021-02-22 04:00:00 7.6 16 Sur 48 Sudoeste 4.2 -- -- 84
2021-02-22 03:00:00 9.5 5 Sudoeste 13 Sudoeste 0.6 -- -- 86
2021-02-22 02:00:00 9.9 3 Nordeste 15 Noroeste 0 -- -- 80
2021-02-22 01:00:00 9.9 9 Norte 33 Este 0 -- -- 79
2021-02-22 00:00:00 10 5 Sudeste 13 Este 0 -- -- 79
2021-02-21 23:00:00 10.1 6 Este 13 Este 0 -- -- 79
2021-02-21 22:00:00 10.2 0 Calma 10 Oeste 0 -- -- 80
2021-02-21 21:00:00 10.1 3 Sudeste 27 Este 0 -- -- 80
2021-02-21 20:00:00 10.2 15 Este 28 Este 0 -- -- 80
2021-02-21 19:00:00 9.9 4 Este 22 Este 0 -- -- 80
2021-02-21 18:00:00 9.9 0 Calma 14 Sudeste 0 -- -- 80
2021-02-21 17:00:00 9.9 6 Sur 28 Este 0 -- -- 80
2021-02-21 16:00:00 10.3 16 Este 34 Sudeste 0 -- -- 78
2021-02-21 15:00:00 10.2 12 Sudeste 39 Este 0 -- -- 78
2021-02-21 14:00:00 10.2 16 Este 40 Este 0 -- -- 76
2021-02-21 13:00:00 10.1 12 Sudeste 36 Este 0 -- -- 74
2021-02-21 12:00:00 9.9 14 Sur 45 Sudeste 0 -- -- 76
2021-02-21 11:00:00 9.9 16 Sudeste 40 Este 0 -- -- 73
2021-02-21 10:00:00 9.1 13 Sudeste 27 Sudeste 0 -- -- 76
2021-02-21 09:00:00 7.9 14 Sur 36 Sur 0 -- -- 79
2021-02-21 08:00:00 7.6 13 Sur 37 Sudoeste 0 -- -- 80
2021-02-21 07:00:00 7.2 18 Sur 32 Sur 0 -- -- 79
2021-02-21 06:00:00 6.7 9 Sudeste 23 Sur 0 -- -- 78
2021-02-21 05:00:00 7.1 10 Sur 26 Sudoeste 0 -- -- 74
2021-02-21 04:00:00 7.3 13 Sur 29 Sur 0 -- -- 73
2021-02-21 03:00:00 7.8 18 Sudeste 33 Sudeste 0 -- -- 70
2021-02-21 02:00:00 7.4 11 Sur 25 Sudeste 0 -- -- 71
2021-02-21 01:00:00 7.4 14 Sudeste 31 Este 0 -- -- 75
2021-02-21 00:00:00 7.2 9 Sudeste 28 Sudeste 0 -- -- 76
2021-02-20 23:00:00 7.2 14 Este 29 Sudeste 0 -- -- 77
2021-02-20 22:00:00 9.1 15 Sur 35 Sudoeste 0 -- -- 62
2021-02-20 21:00:00 9.6 15 Sur 32 Sur 0 -- -- 62
2021-02-20 20:00:00 9.3 12 Este 27 Sudeste 0 -- -- 68
2021-02-20 19:00:00 9.9 10 Sudeste 32 Sur 0 -- -- 69
2021-02-20 18:00:00 11.6 14 Sudeste 34 Sudeste 0 -- -- 63
2021-02-20 17:00:00 15.3 16 Sudeste 42 Sudeste 0 -- -- 45
2021-02-20 16:00:00 17.6 19 Este 39 Este 0 -- -- 35
2021-02-20 15:00:00 18.1 19 Sudeste 35 Este 0 -- -- 30
2021-02-20 14:00:00 19.7 20 Este 42 Este 0 -- -- 27
2021-02-20 13:00:00 20 17 Sudeste 33 Sur 0 -- -- 24
2021-02-20 12:00:00 18.6 18 Sur 39 Sur 0 -- -- 25
2021-02-20 11:00:00 17.1 13 Sur 22 Sur 0 -- -- 30
2021-02-20 10:00:00 14.5 9 Sur 15 Sur 0 -- -- 33
2021-02-20 09:00:00 12.3 6 Sur 14 Sur 0 -- -- 39
2021-02-20 08:00:00 9.9 2 Sur 7 Sur 0 -- -- 45
2021-02-20 07:00:00 10.2 3 Sudoeste 5 Sudeste 0 -- -- 46
2021-02-20 06:00:00 11.3 4 Este 9 Este 0 -- -- 44
2021-02-20 05:00:00 11.5 2 Este 5 Este 0 -- -- 43
2021-02-20 04:00:00 11.7 2 Este 9 Sur 0 -- -- 43
2021-02-20 03:00:00 11.3 5 Sur 13 Sur 0 -- -- 45
2021-02-20 02:00:00 11.9 3 Sudeste 9 Este 0 -- -- 46
2021-02-20 01:00:00 11.5 4 Sudeste 12 Sudeste 0 -- -- 47
2021-02-20 00:00:00 11 0 Calma 11 Sudeste 0 -- -- 47
2021-02-19 23:00:00 11.4 3 Sur 5 Sur 0 -- -- 47
2021-02-19 22:00:00 12.4 4 Sur 8 Sudeste 0 -- -- 47
2021-02-19 21:00:00 13 4 Sudeste 9 Sudoeste 0 -- -- 47
2021-02-19 20:00:00 13.6 5 Sur 13 Este 0 -- -- 48
2021-02-19 19:00:00 14.9 8 Sudeste 18 Sudoeste 0 -- -- 43
2021-02-19 18:00:00 19.1 12 Sudoeste 29 Oeste 0 -- -- 25
2021-02-19 17:00:00 20.2 13 Sudoeste 29 Oeste 0 -- -- 23
2021-02-19 16:00:00 21.1 11 Sudoeste 32 Sur 0 -- -- 21
2021-02-19 15:00:00 20 22 Sudoeste 34 Sudoeste 0 -- -- 20
2021-02-19 14:00:00 20.5 11 Sur 29 Sur 0 -- -- 21
2021-02-19 13:00:00 19.2 8 Sur 17 Sur 0 -- -- 27
2021-02-19 12:00:00 17 6 Este 14 Este 0 -- -- 35
2021-02-19 11:00:00 14.3 3 Este 9 Este 0 -- -- 44
2021-02-19 10:00:00 9.7 2 Este 13 Sur 0 -- -- 54
2021-02-19 09:00:00 7.2 8 Este 12 Sur 0 -- -- 57
2021-02-19 08:00:00 5.6 4 Este 8 Este 0 -- -- 60
2021-02-19 07:00:00 6.2 3 Sudeste 6 Sudeste 0 -- -- 58
2021-02-19 06:00:00 5.9 0 Calma 6 Sudeste 0 -- -- 58
2021-02-19 05:00:00 6.1 3 Sudeste 10 Sudeste 0 -- -- 57
2021-02-19 04:00:00 7.2 2 Sudeste 8 Este 0 -- -- 53
2021-02-19 03:00:00 7.4 4 Este 8 Este 0 -- -- 52
2021-02-19 02:00:00 7.9 5 Este 6 Este 0 -- -- 51
2021-02-19 01:00:00 9.3 2 Sudoeste 4 Sur 0 -- -- 47
2021-02-19 00:00:00 9.8 0 Calma 8 Este 0 -- -- 47
2021-02-18 23:00:00 9.9 3 Este 10 Este 0 -- -- 51
2021-02-18 22:00:00 10.8 4 Este 7 Nordeste 0 -- -- 52
2021-02-18 21:00:00 12.2 3 Este 10 Oeste 0 -- -- 51
2021-02-18 20:00:00 14.1 6 Noroeste 11 Noroeste 0 -- -- 43
2021-02-18 19:00:00 15 3 Noroeste 8 Norte 0 -- -- 44
2021-02-18 18:00:00 17.4 2 Norte 14 Este 0 -- -- 38
2021-02-18 17:00:00 16.6 6 Nordeste 16 Norte 0 -- -- 36
2021-02-18 16:00:00 17.2 10 Nordeste 22 Este 0 -- -- 37
2021-02-18 15:00:00 19.1 13 Este 27 Este 0 -- -- 30
2021-02-18 14:00:00 18.5 8 Este 24 Este 0 -- -- 35
2021-02-18 13:00:00 19.1 9 Este 19 Este 0 -- -- 29
2021-02-18 12:00:00 17.5 5 Este 9 Este 0 -- -- 36
2021-02-18 11:00:00 15.4 3 Sudeste 8 Este 0 -- -- 45
2021-02-18 10:00:00 11 3 Este 9 Este 0 -- -- 50
2021-02-18 09:00:00 7.4 7 Este 11 Este 0 -- -- 54
2021-02-18 08:00:00 5.1 8 Este 10 Este 0 -- -- 60
2021-02-18 07:00:00 6 3 Este 9 Nordeste 0 -- -- 57
2021-02-18 06:00:00 5.9 6 Este 12 Nordeste 0 -- -- 59
2021-02-18 05:00:00 6.4 8 Este 13 Nordeste 0 -- -- 57
2021-02-18 04:00:00 6.9 5 Este 9 Este 0 -- -- 58
2021-02-18 03:00:00 7.6 6 Este 10 Este 0 -- -- 57
2021-02-18 02:00:00 8.1 8 Este 11 Sudeste 0 -- -- 57
2021-02-18 01:00:00 9.7 3 Sur 9 Este 0 -- -- 51
2021-02-18 00:00:00 9.2 3 Sudeste 12 Este 0 -- -- 63
2021-02-17 23:00:00 9.4 4 Este 9 Este 0 -- -- 70
2021-02-17 22:00:00 9.9 7 Este 10 Sudeste 0 -- -- 71
2021-02-17 21:00:00 10.7 3 Sudoeste 7 Sudeste 0 -- -- 68
2021-02-17 20:00:00 12.4 0 Calma 8 Este 0 -- -- 61
2021-02-17 19:00:00 13.6 0 Calma 12 Norte 0 -- -- 60
2021-02-17 18:00:00 15.1 4 Norte 14 Nordeste 0 -- -- 54
2021-02-17 17:00:00 16 5 Nordeste 21 Nordeste 0 -- -- 50
2021-02-17 16:00:00 17.9 5 Norte 25 Este 0 -- -- 42
2021-02-17 15:00:00 18.1 9 Este 21 Este 0 -- -- 40
2021-02-17 14:00:00 17.1 6 Este 23 Este 0 -- -- 41
2021-02-17 13:00:00 17.5 6 Nordeste 16 Este 0 -- -- 40
2021-02-17 12:00:00 15.7 4 Sudeste 13 Este 0 -- -- 42
2021-02-17 11:00:00 13 2 Sudeste 10 Este 0 -- -- 46
2021-02-17 10:00:00 9.2 3 Este 9 Nordeste 0 -- -- 57
2021-02-17 09:00:00 8.1 2 Este 9 Este 0 -- -- 60
2021-02-17 08:00:00 7.4 6 Este 8 Este 0 -- -- 61
2021-02-17 07:00:00 8 6 Este 9 Este 0 -- -- 58
2021-02-17 06:00:00 7.6 6 Este 8 Este 0 -- -- 59
2021-02-17 05:00:00 8.6 5 Este 8 Nordeste 0 -- -- 55
2021-02-17 04:00:00 9.7 0 Calma 4 Este 0 -- -- 50
2021-02-17 03:00:00 10.3 2 Oeste 5 Norte 0 -- -- 51
2021-02-17 02:00:00 10.9 4 Noroeste 11 Noroeste 0 -- -- 46
2021-02-17 01:00:00 11.3 3 Este 8 Nordeste 0 -- -- 46
2021-02-17 00:00:00 11.3 2 Sudeste 8 Sudoeste 0 -- -- 51
2021-02-16 23:00:00 12.6 3 Este 21 Noroeste 0 -- -- 50
2021-02-16 22:00:00 14.4 12 Oeste 22 Noroeste 0 -- -- 35
2021-02-16 21:00:00 14.6 10 Oeste 14 Oeste 0 -- -- 35
2021-02-16 20:00:00 13.1 0 Calma 5 Oeste 0 -- -- 65
2021-02-16 19:00:00 13 2 Oeste 9 Sudoeste 0 -- -- 69
2021-02-16 18:00:00 15.7 5 Sudoeste 18 Norte 0 -- -- 60
2021-02-16 17:00:00 17.8 9 Norte 21 Nordeste 0 -- -- 49
2021-02-16 16:00:00 18.7 6 Norte 19 Noroeste 0 -- -- 43
2021-02-16 15:00:00 18.6 6 Norte 17 Noroeste 0 -- -- 40
2021-02-16 14:00:00 16.7 3 Sur 7 Sudeste 0 -- -- 39
2021-02-16 13:00:00 14.1 3 Sudeste 9 Este 0 -- -- 48
2021-02-16 12:00:00 11.7 3 Nordeste 10 Nordeste 0 -- -- 57
2021-02-16 11:00:00 9.6 4 Nordeste 12 Norte 0 -- -- 59
2021-02-16 10:00:00 6.7 9 Este 12 Este 0 -- -- 68
2021-02-16 09:00:00 3.9 5 Este 9 Este 0 -- -- 82
2021-02-16 08:00:00 2.7 5 Este 9 Este 0 -- -- 85
2021-02-16 07:00:00 3 4 Este 7 Este 0 -- -- 85
2021-02-16 06:00:00 3 6 Este 10 Este 0 -- -- 88
2021-02-16 05:00:00 4 4 Sudeste 9 Sudeste 0 -- -- 85
2021-02-16 04:00:00 4.5 3 Sur 8 Sudoeste 0 -- -- 85
2021-02-16 03:00:00 4.6 3 Sur 8 Sur 0 -- -- 88
2021-02-16 02:00:00 5.4 2 Sur 8 Sudeste 0 -- -- 86
2021-02-16 01:00:00 5.9 5 Sudeste 9 Este 0 -- -- 86
2021-02-16 00:00:00 6.7 8 Sudeste 13 Sur 0 -- -- 84
2021-02-15 23:00:00 7.1 8 Sur 12 Sur 0 -- -- 85
2021-02-15 22:00:00 7.7 6 Sur 12 Sudeste 0 -- -- 86
2021-02-15 21:00:00 8.1 8 Sudeste 15 Este 0 -- -- 85
2021-02-15 20:00:00 8.4 8 Sudeste 21 Sudeste 0 -- -- 84
2021-02-15 19:00:00 9 7 Sudeste 17 Este 0 -- -- 81
2021-02-15 18:00:00 10.2 9 Sudeste 22 Sudeste 0 -- -- 75
2021-02-15 17:00:00 11.7 12 Este 20 Este 0 -- -- 66
2021-02-15 16:00:00 12.8 8 Este 17 Este 0 -- -- 62
2021-02-15 15:00:00 13.1 9 Este 27 Este 0 -- -- 59
2021-02-15 14:00:00 13.6 14 Este 26 Este 0 -- -- 57
2021-02-15 13:00:00 13.6 7 Sudeste 15 Este 0 -- -- 58
2021-02-15 12:00:00 12.6 9 Sur 18 Sudeste 0 -- -- 60
2021-02-15 11:00:00 9.4 8 Sudeste 14 Sur 0 -- -- 70
2021-02-15 10:00:00 6.7 7 Sudeste 11 Sur 0 -- -- 80
2021-02-15 09:00:00 5.6 5 Sudeste 10 Sur 0 -- -- 83
2021-02-15 08:00:00 5.2 5 Sur 11 Sur 0 -- -- 86
2021-02-15 07:00:00 5.4 6 Sur 12 Sur 0 -- -- 86
2021-02-15 06:00:00 5.5 5 Sudeste 10 Sur 0 -- -- 85
2021-02-15 05:00:00 5.5 4 Sur 11 Sur 0 -- -- 84
2021-02-15 04:00:00 5.5 8 Sur 13 Sur 0 -- -- 85
2021-02-15 03:00:00 5.5 6 Sur 13 Sur 0 -- -- 84
2021-02-15 02:00:00 5.6 7 Sur 17 Sur 0 -- -- 84
2021-02-15 01:00:00 5.9 10 Sur 23 Sur 0 -- -- 83
2021-02-15 00:00:00 5.9 12 Sur 22 Sur 0 -- -- 83
2021-02-14 23:00:00 6.1 12 Sur 23 Sur 0 -- -- 83
2021-02-14 22:00:00 6.1 16 Sur 25 Sudoeste 0 -- -- 82
2021-02-14 21:00:00 6.4 17 Sur 28 Sur 0 -- -- 80
2021-02-14 20:00:00 7.1 13 Sur 30 Sudeste 0 -- -- 79
2021-02-14 19:00:00 7.6 13 Sudeste 28 Sudeste 0 -- -- 79
2021-02-14 18:00:00 8 12 Sudeste 30 Sudeste 0 -- -- 79
2021-02-14 17:00:00 9.9 10 Sudeste 27 Sur 0 -- -- 70
2021-02-14 16:00:00 11.5 14 Sudeste 31 Sudeste 0 -- -- 62
2021-02-14 15:00:00 11.7 16 Este 35 Sudeste 0 -- -- 62
2021-02-14 14:00:00 13.3 13 Sudeste 31 Este 0 -- -- 56
2021-02-14 13:00:00 13.9 13 Sudeste 32 Este 0 -- -- 54
2021-02-14 12:00:00 12.6 11 Sudeste 21 Sudeste 0 -- -- 54
2021-02-14 11:00:00 11.6 4 Sur 8 Sur 0 -- -- 56
2021-02-14 10:00:00 8.3 3 Este 9 Este 0 -- -- 71
2021-02-14 09:00:00 6.4 5 Este 7 Este 0 -- -- 76
2021-02-14 08:00:00 4.8 4 Este 7 Este 0 -- -- 80
2021-02-14 07:00:00 5 5 Nordeste 6 Este 0 -- -- 79
2021-02-14 06:00:00 5.3 2 Sudeste 4 Noroeste 0 -- -- 77
2021-02-14 05:00:00 5.9 2 Noroeste 5 Este 0 -- -- 76
2021-02-14 04:00:00 6.3 3 Sur 13 Oeste 0 -- -- 71
2021-02-14 03:00:00 7.2 0 Calma 12 Oeste 0 -- -- 67
2021-02-14 02:00:00 7.7 0 Calma 12 Noroeste 0 -- -- 64
2021-02-14 01:00:00 7.5 3 Este 12 Norte 0 -- -- 64
2021-02-14 00:00:00 7.6 2 Sudoeste 9 Noroeste 0 -- -- 64
2021-02-13 23:00:00 8.3 4 Sudeste 21 Noroeste 0 -- -- 65
2021-02-13 22:00:00 9.1 12 Oeste 21 Noroeste 0 -- -- 63
2021-02-13 21:00:00 10.3 11 Noroeste 32 Oeste 0 -- -- 55
2021-02-13 20:00:00 10.7 15 Noroeste 30 Noroeste 0 -- -- 50
2021-02-13 19:00:00 10.6 3 Nordeste 22 Sudoeste 0 -- -- 51
2021-02-13 18:00:00 11.1 5 Oeste 17 Noroeste 0 -- -- 50
2021-02-13 17:00:00 11.1 8 Oeste 27 Oeste 0 -- -- 49
2021-02-13 16:00:00 11.6 13 Oeste 25 Noroeste 0 -- -- 47
2021-02-13 15:00:00 12.3 10 Oeste 27 Oeste 0 -- -- 48
2021-02-13 14:00:00 12.8 6 Sudoeste 38 Oeste 0 -- -- 52
2021-02-13 13:00:00 12.3 16 Oeste 42 Oeste 0 -- -- 57
2021-02-13 08:00:00 -- -- -- -- -- -- -- -- --
2021-02-13 07:00:00 7 4 Sudeste 24 Norte 0 -- -- 67
2021-02-13 06:00:00 7.3 8 Norte 45 Noroeste 0 -- -- 68
2021-02-13 05:00:00 7.5 24 Noroeste 53 Oeste 0 -- -- 68
2021-02-13 04:00:00 7.6 25 Oeste 51 Oeste 0 -- -- 70
2021-02-13 03:00:00 7.7 23 Oeste 54 Oeste 0 -- -- 71
2021-02-13 02:00:00 8 20 Oeste 59 Oeste 0 -- -- 70
2021-02-13 01:00:00 8.5 21 Oeste 66 Noroeste 0 -- -- 69
2021-02-13 00:00:00 8.9 21 Oeste 51 Oeste 0 -- -- 68
2021-02-12 23:00:00 9.2 27 Oeste 67 Noroeste 0 -- -- 67
2021-02-12 22:00:00 9.4 33 Noroeste 66 Oeste 0 -- -- 68
2021-02-12 21:00:00 9.6 31 Noroeste 56 Norte 0 -- -- 75
2021-02-12 20:00:00 9.8 22 Oeste 56 Sudoeste 0.2 -- -- 75
2021-02-12 19:00:00 9.9 18 Oeste 44 Oeste 0 -- -- 75
2021-02-12 18:00:00 9 14 Oeste 49 Oeste 0.4 -- -- 81
2021-02-12 17:00:00 8.8 23 Oeste 59 Oeste 1.2 -- -- 82
2021-02-12 16:00:00 12.3 22 Oeste 68 Oeste 0 -- -- 61
2021-02-12 15:00:00 13.2 19 Oeste 51 Oeste 0 -- -- 57
2021-02-12 14:00:00 13.8 21 Sudoeste 44 Noroeste 0 -- -- 54
2021-02-12 13:00:00 12.6 14 Oeste 58 Sudoeste 0 -- -- 53
2021-02-12 12:00:00 11.8 26 Oeste 57 Sudoeste 0 -- -- 56
2021-02-12 11:00:00 11.5 20 Sudoeste 46 Noroeste 0 -- -- 66
2021-02-12 10:00:00 12.4 0 Calma 5 Sudeste 0 -- -- 66
2021-02-12 09:00:00 12 0 Calma 6 Oeste 0 -- -- 68
2021-02-12 08:00:00 11.2 3 Sudeste 8 Este 0 -- -- 71
2021-02-12 07:00:00 11.7 2 Sudoeste 8 Oeste 0 -- -- 69
2021-02-12 06:00:00 10.9 0 Calma 8 Sur 0 -- -- 72
2021-02-12 05:00:00 11.2 2 Nordeste 9 Este 0 -- -- 70
2021-02-12 04:00:00 11.9 6 Sudoeste 12 Sur 0 -- -- 67
2021-02-12 03:00:00 11.5 3 Sur 18 Sudoeste 0 -- -- 68
2021-02-12 02:00:00 11.8 5 Sudoeste 18 Sudoeste 0 -- -- 66
2021-02-12 01:00:00 12.2 4 Sur 16 Oeste 0 -- -- 64
2021-02-12 00:00:00 12.3 4 Sudeste 13 Sur 0 -- -- 63
2021-02-11 23:00:00 11.8 10 Este 19 Sudeste 0 -- -- 65
2021-02-11 22:00:00 12.3 6 Sudeste 21 Oeste 0 -- -- 62
2021-02-11 21:00:00 13.2 9 Sudoeste 46 Oeste 0 -- -- 58
2021-02-11 20:00:00 13.4 28 Oeste 43 Oeste 0 -- -- 59
2021-02-11 19:00:00 14 18 Oeste 31 Oeste 0 -- -- 60
2021-02-11 18:00:00 15.4 10 Oeste 20 Sur 0 -- -- 55
2021-02-11 17:00:00 18.2 8 Sudoeste 30 Oeste 0 -- -- 48
2021-02-11 16:00:00 17.5 19 Oeste 40 Sudoeste 0 -- -- 49
2021-02-11 15:00:00 18.3 15 Oeste 32 Sudoeste 0 -- -- 47
2021-02-11 14:00:00 17.5 18 Sudoeste 37 Sudoeste 0 -- -- 48
2021-02-11 13:00:00 17.2 14 Oeste 45 Noroeste 0 -- -- 50
2021-02-11 12:00:00 15.7 16 Oeste 40 Sudoeste 0 -- -- 54
2021-02-11 11:00:00 13.9 21 Sudoeste 40 Sudoeste 0 -- -- 57
2021-02-11 10:00:00 11.8 3 Nordeste 19 Sudoeste 0 -- -- 56
2021-02-11 09:00:00 10.2 3 Oeste 9 Sudoeste 0 -- -- 61
2021-02-11 08:00:00 6.3 5 Oeste 8 Oeste 0 -- -- 62
2021-02-11 07:00:00 6.5 4 Este 6 Este 0 -- -- 61
2021-02-11 06:00:00 6.3 0 Calma 9 Este 0 -- -- 63
2021-02-11 05:00:00 5.6 0 Calma 6 Este 0 -- -- 68
2021-02-11 04:00:00 5.3 0 Calma 5 Este 0 -- -- 70
2021-02-11 03:00:00 5.6 3 Sudeste 8 Nordeste 0 -- -- 68
2021-02-11 02:00:00 5.9 0 Calma 6 Nordeste 0 -- -- 66
2021-02-11 01:00:00 6.9 3 Oeste 6 Oeste 0 -- -- 63
2021-02-11 00:00:00 6.4 3 Este 5 Este 0 -- -- 63
2021-02-10 23:00:00 6.8 0 Calma 10 Oeste 0 -- -- 61
2021-02-10 22:00:00 7.5 4 Oeste 17 Oeste 0 -- -- 59
2021-02-10 21:00:00 7.9 5 Sudoeste 26 Noroeste 0 -- -- 57
2021-02-10 20:00:00 8.5 5 Sur 19 Noroeste 0 -- -- 55
2021-02-10 19:00:00 9.2 4 Oeste 22 Oeste 0 -- -- 52
2021-02-10 18:00:00 11.2 12 Oeste 38 Oeste 0 -- -- 46
2021-02-10 17:00:00 11.9 20 Oeste 42 Oeste 0 -- -- 44
2021-02-10 16:00:00 11.8 14 Oeste 51 Oeste 0 -- -- 45
2021-02-10 15:00:00 11.8 15 Oeste 36 Oeste 0 -- -- 47
2021-02-10 14:00:00 10.9 18 Oeste 51 Oeste 0 -- -- 52
2021-02-10 13:00:00 10 30 Oeste 59 Oeste 0 -- -- 54
2021-02-10 12:00:00 9.6 21 Oeste 50 Oeste 0 -- -- 58
2021-02-10 11:00:00 8.1 15 Oeste 47 Oeste 0 -- -- 64
2021-02-10 10:00:00 7.4 12 Oeste 40 Sudoeste 0 -- -- 67
2021-02-10 09:00:00 6 12 Oeste 32 Sudoeste 0 -- -- 72
2021-02-10 08:00:00 5.3 6 Sudoeste 32 Noroeste 1.6 -- -- 84
2021-02-10 07:00:00 6.8 7 Noroeste 19 Sudoeste 0.2 -- -- 80
2021-02-10 06:00:00 6.9 7 Oeste 21 Sur 0.2 -- -- 75
2021-02-10 05:00:00 8.1 16 Oeste 49 Sudoeste 0 -- -- 65
2021-02-10 04:00:00 8.2 29 Sudoeste 53 Sudoeste 0 -- -- 60
2021-02-10 03:00:00 8.3 28 Sudoeste 44 Sudoeste 0 -- -- 61
2021-02-10 02:00:00 6.7 13 Sudoeste 41 Oeste 0 -- -- 75
2021-02-10 01:00:00 6.8 16 Oeste 33 Noroeste 0 -- -- 77
2021-02-10 00:00:00 9 15 Sudoeste 45 Oeste 0 -- -- 60
2021-02-09 23:00:00 9.3 21 Sudoeste 51 Oeste 0 -- -- 59
2021-02-09 22:00:00 9.2 26 Sudoeste 54 Sudoeste 0 -- -- 59
2021-02-09 21:00:00 8.9 33 Sudoeste 54 Sudoeste 0 -- -- 60
2021-02-09 20:00:00 8.9 23 Sudoeste 59 Oeste 0 -- -- 60
2021-02-09 19:00:00 8.9 25 Sudoeste 52 Sudoeste 0 -- -- 65
2021-02-09 18:00:00 11.7 32 Sudoeste 71 Sudoeste 0 -- -- 58
2021-02-09 17:00:00 13.2 33 Sudoeste 59 Sudoeste 0 -- -- 52
2021-02-09 16:00:00 12.7 21 Sudoeste 65 Oeste 0 -- -- 52
2021-02-09 15:00:00 12.5 17 Sudoeste 44 Sudoeste 0 -- -- 51
2021-02-09 14:00:00 12.5 14 Sudoeste 37 Sudoeste 0 -- -- 50
2021-02-09 13:00:00 11.7 19 Sudoeste 32 Sudoeste 0 -- -- 51
2021-02-09 12:00:00 10.7 14 Sur 27 Sur 0 -- -- 53
2021-02-09 11:00:00 9.3 6 Sur 17 Sudoeste 0 -- -- 57
2021-02-09 10:00:00 8.7 9 Sur 22 Sur 0 -- -- 58
2021-02-09 09:00:00 8.9 10 Sudoeste 24 Sudoeste 0 -- -- 57
2021-02-09 08:00:00 7.8 4 Noroeste 32 Sudoeste 0 -- -- 59
2021-02-09 07:00:00 8 15 Sudoeste 30 Sur 0 -- -- 59
2021-02-09 06:00:00 7.9 20 Oeste 37 Oeste 0 -- -- 62
2021-02-09 05:00:00 7.7 11 Oeste 49 Oeste 0 -- -- 63
2021-02-09 04:00:00 7.7 21 Sudoeste 42 Oeste 0 -- -- 63
2021-02-09 03:00:00 7.4 3 Oeste 21 Sudoeste 0 -- -- 64
2021-02-09 02:00:00 7.6 6 Sudoeste 23 Oeste 0 -- -- 61
2021-02-09 01:00:00 7.5 12 Sudoeste 32 Sudoeste 0 -- -- 65
2021-02-09 00:00:00 7.4 9 Sudoeste 33 Sudoeste 0 -- -- 63
2021-02-08 23:00:00 7.7 25 Sudoeste 42 Sudoeste 0 -- -- 63
2021-02-08 22:00:00 8.1 17 Sudoeste 49 Oeste 0 -- -- 60
2021-02-08 21:00:00 8.7 30 Sudoeste 46 Sudoeste 0 -- -- 62
2021-02-08 20:00:00 8.4 20 Sudoeste 48 Sudoeste 0 -- -- 61
2021-02-08 19:00:00 8.4 21 Sudoeste 40 Sudoeste 0 -- -- 60
2021-02-08 18:00:00 9.2 23 Sudoeste 44 Sur 0 -- -- 55
2021-02-08 17:00:00 9.6 9 Oeste 53 Oeste 0 -- -- 56
2021-02-08 16:00:00 12.8 21 Oeste 56 Sudoeste 0 -- -- 45
2021-02-08 15:00:00 11.2 24 Sudoeste 54 Oeste 0 -- -- 49
2021-02-08 14:00:00 12.4 23 Sudoeste 55 Sudoeste 0 -- -- 45
2021-02-08 13:00:00 11.5 32 Sudoeste 48 Sudoeste 0.2 -- -- 49
2021-02-08 12:00:00 9.5 17 Sudoeste 32 Sudoeste 0 -- -- 62
2021-02-08 11:00:00 8.3 10 Sudoeste 30 Sudoeste 0 -- -- 67
2021-02-08 10:00:00 7.7 21 Sudoeste 35 Sudoeste 0 -- -- 68
2021-02-08 09:00:00 8.6 21 Sudoeste 40 Sudoeste 0 -- -- 68
2021-02-08 08:00:00 8.3 3 Sur 31 Sudoeste 0 -- -- 64
2021-02-08 07:00:00 8.6 16 Sudoeste 32 Oeste 0 -- -- 61
2021-02-08 06:00:00 8.7 14 Sudoeste 36 Sudoeste 0 -- -- 59
2021-02-08 05:00:00 9.1 24 Sudoeste 49 Sudoeste 0 -- -- 57
2021-02-08 04:00:00 8.9 17 Sudoeste 31 Sudoeste 0 -- -- 59
2021-02-08 03:00:00 8.9 18 Sudoeste 32 Sudoeste 0 -- -- 59
2021-02-08 02:00:00 8.3 8 Sudoeste 23 Sudoeste 0 -- -- 64
2021-02-08 01:00:00 8.2 11 Sudoeste 26 Sur 0 -- -- 64
2021-02-08 00:00:00 8.3 8 Sudoeste 20 Sudoeste 0 -- -- 63
2021-02-07 23:00:00 8.2 4 Sudoeste 25 Sudoeste 0 -- -- 61
2021-02-07 22:00:00 7.8 3 Sudeste 13 Sudoeste 0 -- -- 59
2021-02-07 21:00:00 7.7 2 Sudoeste 9 Oeste 0 -- -- 56
2021-02-07 20:00:00 7.7 2 Sudoeste 8 Oeste 0 -- -- 51
2021-02-07 19:00:00 7.9 4 Oeste 12 Sudoeste 0 -- -- 49
2021-02-07 18:00:00 8.5 10 Sudoeste 32 Sudoeste 0 -- -- 44
2021-02-07 17:00:00 10.2 10 Oeste 26 Oeste 0 -- -- 43
2021-02-07 16:00:00 9.6 13 Noroeste 33 Oeste 0 -- -- 45
2021-02-07 15:00:00 9.6 10 Noroeste 32 Noroeste 0 -- -- 45
2021-02-07 14:00:00 9.7 12 Noroeste 34 Noroeste 0 -- -- 44
2021-02-07 13:00:00 9.6 14 Sudoeste 35 Sudoeste 0 -- -- 46
2021-02-07 12:00:00 8.3 8 Sudoeste 41 Oeste 0 -- -- 51
2021-02-07 11:00:00 6.8 10 Oeste 45 Noroeste 0 -- -- 57
2021-02-07 10:00:00 5.7 5 Oeste 30 Oeste 0 -- -- 63
2021-02-07 09:00:00 3.9 5 Noroeste 27 Oeste 0 -- -- 65
2021-02-07 08:00:00 3.2 10 Este 34 Oeste 0 -- -- 70
2021-02-07 07:00:00 3.4 5 Este 29 Noroeste 0 -- -- 69
2021-02-07 06:00:00 3.5 7 Sudoeste 41 Oeste 0 -- -- 71
2021-02-07 05:00:00 3.7 13 Oeste 39 Noroeste 0 -- -- 74
2021-02-07 04:00:00 3.9 27 Oeste 45 Oeste 0 -- -- 75
2021-02-07 03:00:00 4.4 33 Oeste 54 Noroeste 0 -- -- 75
2021-02-07 02:00:00 4.7 22 Oeste 53 Noroeste 0 -- -- 78
2021-02-07 01:00:00 5 22 Oeste 45 Noroeste 0 -- -- 79
2021-02-07 00:00:00 5.2 19 Oeste 39 Oeste 0 -- -- 79
2021-02-06 23:00:00 5.6 15 Noroeste 41 Oeste 0 -- -- 82
2021-02-06 22:00:00 6 13 Oeste 27 Oeste 0 -- -- 83
2021-02-06 21:00:00 6.2 13 Oeste 31 Sudoeste 0 -- -- 86
2021-02-06 20:00:00 6.6 14 Noroeste 34 Oeste 1.2 -- -- 87
2021-02-06 19:00:00 7.5 8 Nordeste 40 Sudoeste 0 -- -- 87
2021-02-06 18:00:00 8.8 5 Oeste 35 Noroeste 0.2 -- -- 73
2021-02-06 17:00:00 10.1 8 Oeste 29 Oeste 1.8 -- -- 78
2021-02-06 16:00:00 12.1 12 Oeste 32 Oeste 0 -- -- 67
2021-02-06 15:00:00 15.7 10 Este 23 Sudoeste 0 -- -- 45
2021-02-06 14:00:00 13.9 13 Sudoeste 26 Sudoeste 0 -- -- 43
2021-02-06 13:00:00 15.9 14 Sur 27 Sudoeste 0 -- -- 42
2021-02-06 12:00:00 15.4 9 Sur 24 Sudoeste 0 -- -- 46
2021-02-06 11:00:00 13.6 4 Nordeste 16 Sudeste 0 -- -- 52
2021-02-06 10:00:00 11.3 7 Sudeste 17 Sudeste 0 -- -- 63
2021-02-06 09:00:00 9.2 2 Sudeste 30 Sudoeste 0 -- -- 69
2021-02-06 08:00:00 8.1 4 Este 6 Sudeste 0 -- -- 74
2021-02-06 07:00:00 8 3 Este 5 Sudeste 0 -- -- 75
2021-02-06 06:00:00 7.9 0 Calma 8 Este 0 -- -- 77
2021-02-06 05:00:00 8.6 2 Norte 10 Oeste 0 -- -- 73
2021-02-06 04:00:00 9.3 0 Calma 5 Sudoeste 0 -- -- 71
2021-02-06 03:00:00 9.9 5 Nordeste 18 Norte 0 -- -- 69
2021-02-06 02:00:00 10 8 Este 26 Sudeste 0 -- -- 66
2021-02-06 01:00:00 10.9 8 Sur 22 Sudoeste 0 -- -- 60
2021-02-06 00:00:00 9.8 9 Sur 18 Sur 0 -- -- 66
2021-02-05 23:00:00 9.6 13 Sur 28 Sudoeste 0 -- -- 69
2021-02-05 22:00:00 8.9 16 Sur 30 Sur 0 -- -- 76
2021-02-05 21:00:00 8.5 13 Sur 28 Sur 0 -- -- 80
2021-02-05 20:00:00 8.7 8 Este 22 Sur 0 -- -- 80
2021-02-05 19:00:00 9.2 7 Sudeste 21 Este 0 -- -- 79
2021-02-05 18:00:00 10.5 7 Sudeste 25 Sur 0 -- -- 73
2021-02-05 17:00:00 11.5 12 Sudeste 24 Sur 0 -- -- 69
2021-02-05 16:00:00 12.6 14 Este 27 Este 0 -- -- 66
2021-02-05 15:00:00 13.3 19 Este 30 Este 0 -- -- 63
2021-02-05 14:00:00 13.9 12 Sudeste 28 Sudeste 0 -- -- 61
2021-02-05 13:00:00 13.1 12 Sudeste 28 Sudeste 0 -- -- 62
2021-02-05 12:00:00 14.9 14 Este 32 Sudeste 0 -- -- 53
2021-02-05 11:00:00 14.9 8 Sudeste 21 Sudoeste 0 -- -- 50
2021-02-05 10:00:00 13.3 10 Sudoeste 19 Sur 0 -- -- 54
2021-02-05 09:00:00 11 9 Sudoeste 15 Sudoeste 0 -- -- 58
2021-02-05 08:00:00 10.4 2 Sudeste 5 Sudeste 0 -- -- 59
2021-02-05 07:00:00 9.9 0 Calma 9 Este 0 -- -- 59
2021-02-05 06:00:00 9.4 6 Este 9 Nordeste 0 -- -- 62
2021-02-05 05:00:00 8 4 Nordeste 9 Sudeste 0 -- -- 71
2021-02-05 04:00:00 9.1 3 Este 5 Nordeste 0 -- -- 65
2021-02-05 03:00:00 9.2 0 Calma 5 Este 0 -- -- 65
2021-02-05 02:00:00 10.2 4 Este 5 Sudeste 0 -- -- 63
2021-02-05 01:00:00 10 0 Calma 10 Nordeste 0 -- -- 64
2021-02-05 00:00:00 10.8 3 Sudeste 6 Sudeste 0 -- -- 62
2021-02-04 23:00:00 12.1 0 Calma 7 Este 0 -- -- 57
2021-02-04 22:00:00 12.6 2 Este 9 Noroeste 0 -- -- 56
2021-02-04 21:00:00 13.2 2 Este 10 Este 0 -- -- 54
2021-02-04 20:00:00 13.4 8 Este 10 Este 0 -- -- 54
2021-02-04 19:00:00 14.6 6 Este 16 Sudoeste 0 -- -- 50
2021-02-04 18:00:00 16.1 9 Sudoeste 24 Sudoeste 0 -- -- 45
2021-02-04 17:00:00 18.3 15 Sur 28 Sudoeste 0 -- -- 39
2021-02-04 16:00:00 18.8 16 Sur 32 Sudeste 0 -- -- 37
2021-02-04 15:00:00 17.5 16 Este 26 Este 0 -- -- 43
2021-02-04 14:00:00 16.4 4 Nordeste 13 Norte 0 -- -- 55
2021-02-04 13:00:00 15.2 3 Nordeste 12 Noroeste 0 -- -- 55
2021-02-04 12:00:00 12.1 3 Nordeste 5 Este 0 -- -- 67
2021-02-04 11:00:00 11.7 4 Oeste 9 Oeste 0 -- -- 64
2021-02-04 10:00:00 10.1 4 Sudeste 7 Sudeste 0 -- -- 68
2021-02-04 09:00:00 8.8 2 Este 6 Sudeste 0 -- -- 74
2021-02-04 08:00:00 8.5 4 Este 8 Este 0 -- -- 76
2021-02-04 07:00:00 9.9 0 Calma 8 Sudoeste 0 -- -- 70
2021-02-04 06:00:00 11.1 4 Sudoeste 13 Sudoeste 0 -- -- 63
2021-02-04 05:00:00 10.6 3 Sur 9 Sur 0 -- -- 65
2021-02-04 04:00:00 9.7 2 Sur 8 Sudoeste 0 -- -- 72
2021-02-04 03:00:00 10.4 4 Sudoeste 7 Sudoeste 0 -- -- 65
2021-02-04 02:00:00 10.5 2 Sudeste 6 Sudeste 0 -- -- 70
2021-02-04 01:00:00 9.6 2 Este 5 Este 0 -- -- 77
2021-02-04 00:00:00 10.5 0 Calma 5 Sudeste 0 -- -- 72
2021-02-03 23:00:00 10.1 4 Este 5 Este 0 -- -- 75
2021-02-03 22:00:00 10.7 3 Este 4 Este 0 -- -- 74
2021-02-03 21:00:00 11.4 4 Este 5 Este 0 -- -- 71
2021-02-03 20:00:00 12.4 0 Calma 5 Nordeste 0 -- -- 63
2021-02-03 19:00:00 12.7 2 Norte 5 Norte 0 -- -- 62
2021-02-03 18:00:00 13.3 4 Nordeste 7 Este 0 -- -- 61
2021-02-03 17:00:00 13.9 2 Sudoeste 15 Oeste 0 -- -- 59
2021-02-03 16:00:00 15 2 Sudeste 8 Norte 0 -- -- 56
2021-02-03 15:00:00 15.2 2 Sudoeste 6 Norte 0 -- -- 55
2021-02-03 14:00:00 14.7 3 Norte 18 Nordeste 0 -- -- 55
2021-02-03 13:00:00 13.6 3 Sudoeste 7 Sur 0 -- -- 58
2021-02-03 12:00:00 11.9 0 Calma 5 Sudoeste 0 -- -- 65
2021-02-03 11:00:00 9.7 3 Este 6 Este 0 -- -- 64
2021-02-03 10:00:00 7.9 2 Sudoeste 6 Sudoeste 0 -- -- 66
2021-02-03 09:00:00 6.5 3 Este 6 Sur 0 -- -- 70
2021-02-03 08:00:00 6.6 3 Este 5 Nordeste 0 -- -- 72
2021-02-03 07:00:00 6.4 5 Este 10 Este 0 -- -- 77
2021-02-03 06:00:00 7 0 Calma 2 Sudoeste 0 -- -- 79
2021-02-03 05:00:00 6.9 0 Calma 7 Noroeste 0 -- -- 80
2021-02-03 04:00:00 7.5 2 Este 6 Sur 0 -- -- 79
2021-02-03 03:00:00 8.2 3 Este 6 Este 0 -- -- 76
2021-02-03 02:00:00 7.5 2 Sudeste 8 Oeste 0 -- -- 79
2021-02-03 01:00:00 7.9 4 Este 6 Este 0 -- -- 80
2021-02-03 00:00:00 8.9 4 Nordeste 6 Nordeste 0 -- -- 76
2021-02-02 23:00:00 10 2 Nordeste 6 Este 0 -- -- 73
2021-02-02 22:00:00 11.1 0 Calma 4 Sudeste 0 -- -- 69
2021-02-02 21:00:00 11.8 2 Este 10 Nordeste 0 -- -- 67
2021-02-02 20:00:00 13.3 4 Norte 18 Norte 0 -- -- 61
2021-02-02 19:00:00 13.8 10 Norte 17 Norte 0 -- -- 59
2021-02-02 18:00:00 16.4 6 Norte 23 Este 0 -- -- 51
2021-02-02 17:00:00 18.4 11 Este 20 Este 0 -- -- 45
2021-02-02 16:00:00 19.4 3 Este 17 Este 0 -- -- 43
2021-02-02 15:00:00 19.6 6 Sudeste 14 Sur 0 -- -- 44
2021-02-02 14:00:00 18.8 6 Sur 21 Sudoeste 0 -- -- 46
2021-02-02 13:00:00 17.1 13 Sudoeste 28 Sudoeste 0 -- -- 50
2021-02-02 12:00:00 15.8 14 Oeste 34 Sudoeste 0 -- -- 53
2021-02-02 11:00:00 13.9 9 Sudoeste 28 Noroeste 0 -- -- 60
2021-02-02 10:00:00 11.5 6 Este 18 Noroeste 0 -- -- 67
2021-02-02 09:00:00 10.7 10 Norte 16 Noroeste 0 -- -- 68
2021-02-02 08:00:00 10.8 0 Calma 20 Sudeste 0 -- -- 66
2021-02-02 07:00:00 11.9 18 Sudoeste 46 Sudoeste 0 -- -- 63
2021-02-02 06:00:00 11.6 9 Sudoeste 39 Sudoeste 0 -- -- 65
2021-02-02 05:00:00 11.7 17 Sudoeste 33 Sur 0 -- -- 64
2021-02-02 04:00:00 11 5 Nordeste 17 Sudoeste 0 -- -- 65
2021-02-02 03:00:00 11.5 10 Sudeste 30 Noroeste 0 -- -- 62
2021-02-02 02:00:00 11.8 12 Oeste 33 Noroeste 0 -- -- 61
2021-02-02 01:00:00 12.1 6 Oeste 26 Sudoeste 0 -- -- 60
2021-02-02 00:00:00 11.3 9 Oeste 31 Sudoeste 0 -- -- 61
2021-02-01 23:00:00 10.9 7 Sudoeste 24 Sur 0 -- -- 62
2021-02-01 22:00:00 11.5 5 Oeste 31 Noroeste 0 -- -- 60
2021-02-01 21:00:00 12 10 Oeste 32 Noroeste 0 -- -- 58
2021-02-01 20:00:00 12.6 17 Oeste 38 Noroeste 0 -- -- 58
2021-02-01 19:00:00 13.6 18 Oeste 42 Norte 0 -- -- 55
2021-02-01 18:00:00 15.5 15 Oeste 45 Noroeste 0 -- -- 51
2021-02-01 17:00:00 16.3 10 Noroeste 40 Noroeste 0 -- -- 48
2021-02-01 16:00:00 16.2 15 Noroeste 61 Noroeste 0 -- -- 48
2021-02-01 15:00:00 15.6 23 Oeste 53 Oeste 0 -- -- 47
2021-02-01 14:00:00 15.8 16 Oeste 58 Oeste 0 -- -- 43
2021-02-01 13:00:00 15.3 28 Oeste 66 Oeste 0 -- -- 44
2021-02-01 12:00:00 14.8 17 Oeste 65 Noroeste 0 -- -- 47
2021-02-01 11:00:00 13.1 22 Noroeste 52 Oeste 0 -- -- 48
2021-02-01 10:00:00 11.5 20 Oeste 51 Noroeste 0 -- -- 53
2021-02-01 09:00:00 10 16 Oeste 41 Noroeste 0 -- -- 58
2021-02-01 08:00:00 9.7 21 Oeste 54 Noroeste 0 -- -- 58
2021-02-01 07:00:00 10 22 Oeste 53 Noroeste 0 -- -- 57
2021-02-01 06:00:00 10.4 19 Oeste 50 Oeste 0 -- -- 55
2021-02-01 05:00:00 11 24 Sudoeste 56 Sur 0 -- -- 52
2021-02-01 04:00:00 11.5 25 Oeste 51 Oeste 0 -- -- 51
2021-02-01 03:00:00 11.9 27 Oeste 60 Sudoeste 0 -- -- 52
2021-02-01 02:00:00 12.1 23 Oeste 57 Sudoeste 0 -- -- 54
2021-02-01 01:00:00 12.6 28 Sudoeste 61 Oeste 0 -- -- 53
2021-02-01 00:00:00 12.9 31 Sudoeste 55 Sudoeste 0 -- -- 56
2021-01-31 23:00:00 13 31 Sudoeste 55 Sudoeste 0 -- -- 58
2021-01-31 22:00:00 13 31 Sudoeste 57 Sudoeste 0 -- -- 59
2021-01-31 21:00:00 12.8 10 Sudoeste 32 Sudoeste 0 -- -- 59
2021-01-31 20:00:00 12.9 15 Sudoeste 47 Sudoeste 0 -- -- 62
2021-01-31 19:00:00 12.7 22 Sudoeste 50 Sudoeste 0 -- -- 63
2021-01-31 18:00:00 13 23 Sudoeste 49 Sudoeste 0 -- -- 62
2021-01-31 17:00:00 13.6 29 Sudoeste 54 Sudoeste 0 -- -- 60
2021-01-31 16:00:00 14.1 34 Sudoeste 55 Sudoeste 0 -- -- 56
2021-01-31 15:00:00 13.2 23 Sudoeste 41 Sudoeste 0 -- -- 57
2021-01-31 14:00:00 13.1 15 Oeste 38 Noroeste 0 -- -- 55
2021-01-31 13:00:00 13.1 19 Oeste 56 Noroeste 0 -- -- 52
2021-01-31 12:00:00 10.1 17 Oeste 38 Noroeste 0 -- -- 58
2021-01-31 11:00:00 10.5 15 Oeste 36 Noroeste 0 -- -- 54
2021-01-31 10:00:00 9.5 12 Oeste 46 Sudoeste 0 -- -- 57
2021-01-31 09:00:00 7.6 18 Oeste 44 Sudoeste 0 -- -- 63
2021-01-31 08:00:00 7.2 17 Oeste 46 Sudoeste 0 -- -- 63
2021-01-31 07:00:00 7.5 16 Oeste 52 Sudoeste 0 -- -- 61
2021-01-31 06:00:00 7.9 23 Sudoeste 49 Sudoeste 0 -- -- 61
2021-01-31 05:00:00 7.8 15 Oeste 47 Sudoeste 0 -- -- 60
2021-01-31 04:00:00 7.6 19 Sudoeste 57 Sudoeste 0 -- -- 61
2021-01-31 03:00:00 7.7 26 Sudoeste 57 Oeste 0 -- -- 60
2021-01-31 02:00:00 7.7 21 Oeste 48 Sudoeste 0 -- -- 58
2021-01-31 01:00:00 7.5 19 Oeste 39 Sudoeste 0 -- -- 63
2021-01-31 00:00:00 7.4 13 Oeste 35 Oeste 0 -- -- 65
2021-01-30 23:00:00 7.8 8 Oeste 31 Norte 0 -- -- 66
2021-01-30 22:00:00 8.2 9 Oeste 40 Oeste 0 -- -- 61
2021-01-30 21:00:00 8.1 12 Sudoeste 36 Sudoeste 0 -- -- 62
2021-01-30 20:00:00 8.8 21 Sudoeste 40 Sudoeste 0 -- -- 58
2021-01-30 19:00:00 9.5 8 Oeste 36 Oeste 0 -- -- 53
2021-01-30 18:00:00 10.3 18 Oeste 43 Norte 0 -- -- 49
2021-01-30 17:00:00 11.5 15 Sudoeste 48 Sudoeste 0 -- -- 52
2021-01-30 16:00:00 11.4 25 Sudoeste 66 Oeste 0.2 -- -- 52
2021-01-30 15:00:00 12.1 21 Sudoeste 54 Sudoeste 0 -- -- 53
2021-01-30 14:00:00 10.9 21 Oeste 50 Sudoeste 0.2 -- -- 68
2021-01-30 13:00:00 13 17 Sudoeste 45 Sudoeste 0 -- -- 52
2021-01-30 12:00:00 11.5 21 Sudoeste 61 Sudoeste 0 -- -- 63
2021-01-30 11:00:00 10 20 Oeste 63 Oeste 0 -- -- 73
2021-01-30 10:00:00 10.9 14 Oeste 36 Oeste 0 -- -- 63
2021-01-30 09:00:00 11.4 13 Sudoeste 29 Sudoeste 0 -- -- 68
2021-01-30 08:00:00 10.5 8 Norte 17 Norte 0 -- -- 68
2021-01-30 07:00:00 10.4 3 Oeste 14 Norte 0 -- -- 64
2021-01-30 06:00:00 12.5 10 Norte 28 Noroeste 0 -- -- 56
2021-01-30 05:00:00 13.9 13 Sudoeste 38 Oeste 0 -- -- 51
2021-01-30 04:00:00 11.6 4 Sur 18 Sur 0 -- -- 59
2021-01-30 03:00:00 11.3 4 Sudeste 10 Sudoeste 0 -- -- 62
2021-01-30 02:00:00 11.7 3 Sudeste 12 Sur 0 -- -- 63
2021-01-30 01:00:00 11.6 3 Este 9 Sudeste 0 -- -- 66
2021-01-30 00:00:00 11.3 4 Este 10 Oeste 0 -- -- 70